createdAt,value
2023-03-18T00:01:21.198Z,9.70
2023-03-18T00:03:50.934Z,10.60
2023-03-18T00:06:21.856Z,10.30
2023-03-18T00:08:51.913Z,10.60
2023-03-18T00:11:21.907Z,10.00
2023-03-18T00:13:51.048Z,10.30
2023-03-18T00:16:21.060Z,10.00
2023-03-18T00:18:51.016Z,10.20
2023-03-18T00:21:20.256Z,9.90
2023-03-18T00:23:50.102Z,10.60
2023-03-18T00:26:20.180Z,10.10
2023-03-18T00:28:49.718Z,10.20
2023-03-18T00:31:19.213Z,10.70
2023-03-18T00:33:49.892Z,10.70
2023-03-18T00:36:24.998Z,10.00
2023-03-18T00:38:57.178Z,10.40
2023-03-18T00:41:28.003Z,10.30
2023-03-18T00:43:58.131Z,10.70
2023-03-18T00:46:30.255Z,9.70
2023-03-18T00:49:01.517Z,10.20
2023-03-18T00:51:34.498Z,10.10
2023-03-18T00:54:06.699Z,10.30
2023-03-18T00:56:38.060Z,9.90
2023-03-18T00:59:08.695Z,9.50
2023-03-18T01:01:38.832Z,10.40
2023-03-18T01:04:08.416Z,9.30
2023-03-18T01:06:39.564Z,10.30
2023-03-18T01:09:11.340Z,9.70
2023-03-18T01:11:41.504Z,10.10
2023-03-18T01:14:10.698Z,10.00
2023-03-18T01:16:40.300Z,10.10
2023-03-18T01:19:10.182Z,10.60
2023-03-18T01:21:39.554Z,10.30
2023-03-18T01:24:10.828Z,10.80
2023-03-18T01:26:40.153Z,10.10
2023-03-18T01:29:10.278Z,10.20
2023-03-18T01:31:39.575Z,10.90
2023-03-18T01:34:14.076Z,10.20
2023-03-18T01:36:47.481Z,10.40
2023-03-18T01:39:17.495Z,9.80
2023-03-18T01:41:48.354Z,9.60
2023-03-18T01:44:25.036Z,9.40
2023-03-18T01:46:56.261Z,10.00
2023-03-18T01:49:28.930Z,9.20
2023-03-18T01:52:00.721Z,9.50
2023-03-18T01:54:32.731Z,10.40
2023-03-18T01:57:02.422Z,10.50
2023-03-18T01:59:37.938Z,10.10
2023-03-18T02:02:09.924Z,10.40
2023-03-18T02:04:44.047Z,11.50
2023-03-18T02:07:17.547Z,11.30
2023-03-18T02:09:48.101Z,11.10
2023-03-18T02:12:27.352Z,10.60
2023-03-18T02:15:00.013Z,11.30
2023-03-18T02:17:33.296Z,11.30
2023-03-18T02:20:13.895Z,10.50
2023-03-18T02:22:46.893Z,11.10
2023-03-18T02:25:32.192Z,10.10
2023-03-18T02:28:04.273Z,9.80
2023-03-18T02:30:38.914Z,9.80
2023-03-18T02:33:09.454Z,9.90
2023-03-18T02:35:40.474Z,10.40
2023-03-18T02:38:09.809Z,10.30
2023-03-18T02:40:41.348Z,10.00
2023-03-18T02:43:25.238Z,9.70
2023-03-18T02:46:13.331Z,9.80
2023-03-18T02:48:45.506Z,9.90
2023-03-18T02:51:16.762Z,9.80
2023-03-18T02:53:47.349Z,9.10
2023-03-18T02:56:17.155Z,9.20
2023-03-18T02:58:46.526Z,8.90
2023-03-18T03:01:16.308Z,8.60
2023-03-18T03:03:45.809Z,9.10
2023-03-18T03:06:16.427Z,8.50
2023-03-18T03:08:45.955Z,8.90
2023-03-18T03:11:15.301Z,8.60
2023-03-18T03:13:46.206Z,8.40
2023-03-18T03:16:17.960Z,8.60
2023-03-18T03:18:47.297Z,9.00
2023-03-18T03:21:17.036Z,8.60
2023-03-18T03:23:47.204Z,8.80
2023-03-18T03:26:17.204Z,8.20
2023-03-18T03:28:47.293Z,8.20
2023-03-18T03:31:17.155Z,8.50
2023-03-18T03:33:47.227Z,9.20
2023-03-18T03:36:18.271Z,8.40
2023-03-18T03:38:47.795Z,9.20
2023-03-18T03:41:17.886Z,7.80
2023-03-18T03:43:47.015Z,8.50
2023-03-18T03:46:16.338Z,8.60
2023-03-18T03:48:47.364Z,8.20
2023-03-18T03:51:16.590Z,8.70
2023-03-18T03:53:46.123Z,8.20
2023-03-18T03:56:16.992Z,8.50
2023-03-18T03:58:46.266Z,8.80
2023-03-18T04:01:15.599Z,8.40
2023-03-18T04:03:45.672Z,8.60
2023-03-18T04:06:16.032Z,8.70
2023-03-18T04:08:51.084Z,8.60
2023-03-18T04:11:21.299Z,10.70
2023-03-18T04:13:50.646Z,13.00
2023-03-18T04:16:19.913Z,8.70
2023-03-18T04:18:49.151Z,8.60
2023-03-18T04:21:18.861Z,8.60
2023-03-18T04:23:52.639Z,8.50
2023-03-18T04:26:21.945Z,8.70
2023-03-18T04:28:51.668Z,8.10
2023-03-18T04:31:21.294Z,8.90
2023-03-18T04:33:50.608Z,8.80
2023-03-18T04:36:19.804Z,8.30
2023-03-18T04:38:49.904Z,8.20
2023-03-18T04:41:19.921Z,8.30
2023-03-18T04:43:49.082Z,8.40
2023-03-18T04:46:18.546Z,8.10
2023-03-18T04:48:48.251Z,8.50
2023-03-18T04:51:19.234Z,8.40
2023-03-18T04:53:48.966Z,11.00
2023-03-18T04:56:19.470Z,10.80
2023-03-18T04:58:52.189Z,8.10
2023-03-18T05:01:25.095Z,8.30
2023-03-18T05:03:54.834Z,8.00
2023-03-18T05:06:27.957Z,8.40
2023-03-18T05:09:00.932Z,7.60
2023-03-18T05:11:35.182Z,7.90
2023-03-18T05:14:24.873Z,8.70
2023-03-18T05:16:54.532Z,8.50
2023-03-18T05:19:24.795Z,7.90
2023-03-18T05:22:00.437Z,8.20
2023-03-18T05:24:30.345Z,7.90
2023-03-18T05:27:00.103Z,7.70
2023-03-18T05:29:34.145Z,8.10
2023-03-18T05:32:31.624Z,8.40
2023-03-18T05:35:05.714Z,7.90
2023-03-18T05:37:37.233Z,8.70
2023-03-18T05:40:12.209Z,8.40
2023-03-18T05:42:55.352Z,9.10
2023-03-18T05:45:27.054Z,9.00
2023-03-18T05:47:56.948Z,8.60
2023-03-18T05:50:34.977Z,9.00
2023-03-18T05:53:06.054Z,8.30
2023-03-18T05:55:38.032Z,8.90
2023-03-18T05:58:07.476Z,8.40
2023-03-18T06:00:37.587Z,8.50
2023-03-18T06:03:07.136Z,8.40
2023-03-18T06:05:38.368Z,8.40
2023-03-18T06:08:07.835Z,8.00
2023-03-18T06:10:39.740Z,8.40
2023-03-18T06:13:10.715Z,8.40
2023-03-18T06:15:39.918Z,9.10
2023-03-18T06:18:10.278Z,9.30
2023-03-18T06:20:39.483Z,8.40
2023-03-18T06:23:10.103Z,8.60
2023-03-18T06:25:41.254Z,9.30
2023-03-18T06:28:10.490Z,8.10
2023-03-18T06:30:40.087Z,8.30
2023-03-18T06:33:10.194Z,8.80
2023-03-18T06:35:39.940Z,8.60
2023-03-18T06:38:10.250Z,8.80
2023-03-18T06:40:40.499Z,8.10
2023-03-18T06:43:10.953Z,8.30
2023-03-18T06:45:42.938Z,8.30
2023-03-18T06:48:12.873Z,8.70
2023-03-18T06:50:44.110Z,10.00
2023-03-18T06:53:18.080Z,8.90
2023-03-18T06:55:49.865Z,8.80
2023-03-18T06:58:20.834Z,8.40
2023-03-18T07:00:58.826Z,9.50
2023-03-18T07:03:30.547Z,10.20
2023-03-18T07:06:00.621Z,9.00
2023-03-18T07:08:30.503Z,8.90
2023-03-18T07:11:00.450Z,9.10
2023-03-18T07:13:29.762Z,9.30
2023-03-18T07:15:59.802Z,9.20
2023-03-18T07:18:29.990Z,9.20
2023-03-18T07:20:59.161Z,10.10
2023-03-18T07:23:28.821Z,9.80
2023-03-18T07:25:59.679Z,9.50
2023-03-18T07:28:29.433Z,9.40
2023-03-18T07:30:58.604Z,12.20
2023-03-18T07:33:28.155Z,9.50
2023-03-18T07:35:57.726Z,10.20
2023-03-18T07:38:27.157Z,10.50
2023-03-18T07:40:57.422Z,9.80
2023-03-18T07:43:27.434Z,10.50
2023-03-18T07:45:56.619Z,9.70
2023-03-18T07:48:25.832Z,9.80
2023-03-18T07:50:55.407Z,10.70
2023-03-18T07:53:24.670Z,8.70
2023-03-18T07:55:54.376Z,9.10
2023-03-18T07:58:25.182Z,8.70
2023-03-18T08:00:54.566Z,9.10
2023-03-18T08:03:23.709Z,11.00
2023-03-18T08:05:53.457Z,9.80
2023-03-18T08:08:22.674Z,9.40
2023-03-18T08:10:53.105Z,9.20
2023-03-18T08:13:22.256Z,9.00
2023-03-18T08:15:52.347Z,9.20
2023-03-18T08:18:22.037Z,8.80
2023-03-18T08:20:52.492Z,9.30
2023-03-18T08:23:22.278Z,11.90
2023-03-18T08:25:52.020Z,12.90
2023-03-18T08:28:21.385Z,11.40
2023-03-18T08:30:56.177Z,29.90
2023-03-18T08:33:27.503Z,10.90
2023-03-18T08:35:57.426Z,9.80
2023-03-18T08:38:27.653Z,9.10
2023-03-18T08:40:57.431Z,11.40
2023-03-18T08:43:26.784Z,10.90
2023-03-18T08:45:58.104Z,11.40
2023-03-18T08:48:27.344Z,9.20
2023-03-18T08:50:57.097Z,10.90
2023-03-18T08:53:27.212Z,9.90
2023-03-18T08:55:56.419Z,9.30
2023-03-18T08:58:27.061Z,9.60
2023-03-18T09:00:57.517Z,9.40
2023-03-18T09:03:27.619Z,9.00
2023-03-18T09:05:58.015Z,10.90
2023-03-18T09:08:28.778Z,9.70
2023-03-18T09:10:59.299Z,9.20
2023-03-18T09:13:28.520Z,10.10
2023-03-18T09:15:57.728Z,10.50
2023-03-18T09:18:28.218Z,9.40
2023-03-18T09:20:57.350Z,9.60
2023-03-18T09:23:27.461Z,9.60
2023-03-18T09:25:56.671Z,9.70
2023-03-18T09:28:25.983Z,10.70
2023-03-18T09:30:56.178Z,11.70
2023-03-18T09:33:26.110Z,11.10
2023-03-18T09:35:55.557Z,10.60
2023-03-18T09:38:24.787Z,10.50
2023-03-18T09:41:06.480Z,9.90
2023-03-18T09:43:57.379Z,10.60
2023-03-18T09:46:37.141Z,9.90
2023-03-18T09:49:31.610Z,10.30
2023-03-18T09:52:14.267Z,10.10
2023-03-18T09:54:51.021Z,10.20
2023-03-18T09:57:24.244Z,10.50
2023-03-18T09:59:58.503Z,11.10
2023-03-18T10:02:35.330Z,10.50
2023-03-18T10:05:13.436Z,10.50
2023-03-18T10:07:46.740Z,10.30
2023-03-18T10:10:25.388Z,11.10
2023-03-18T10:13:06.446Z,10.90
2023-03-18T10:15:41.979Z,11.20
2023-03-18T10:18:18.606Z,11.60
2023-03-18T10:21:04.007Z,10.60
2023-03-18T10:23:48.995Z,10.30
2023-03-18T10:26:27.169Z,11.00
2023-03-18T10:29:16.366Z,9.90
2023-03-18T10:31:58.948Z,9.70
2023-03-18T10:34:35.130Z,10.10
2023-03-18T10:37:10.786Z,10.70
2023-03-18T10:39:40.896Z,11.10
2023-03-18T10:42:21.403Z,10.40
2023-03-18T10:44:53.241Z,11.20
2023-03-18T10:47:27.657Z,10.10
2023-03-18T10:50:06.388Z,10.90
2023-03-18T10:52:40.400Z,11.30
2023-03-18T10:55:16.564Z,13.30
2023-03-18T10:57:45.827Z,12.40
2023-03-18T11:00:27.397Z,15.00
2023-03-18T11:02:57.040Z,12.00
2023-03-18T11:05:28.779Z,10.60
2023-03-18T11:08:00.183Z,13.10
2023-03-18T11:10:34.030Z,11.00
2023-03-18T11:13:04.161Z,10.50
2023-03-18T11:15:39.520Z,10.30
2023-03-18T11:18:18.330Z,11.00
2023-03-18T11:20:58.892Z,11.20
2023-03-18T11:23:45.787Z,10.60
2023-03-18T11:26:22.243Z,10.50
2023-03-18T11:28:56.653Z,10.00
2023-03-18T11:31:27.499Z,10.00
2023-03-18T11:34:00.005Z,9.90
2023-03-18T11:36:32.552Z,9.30
2023-03-18T11:39:07.184Z,9.50
2023-03-18T11:41:39.830Z,11.30
2023-03-18T11:44:17.934Z,12.10
2023-03-18T11:46:51.612Z,12.30
2023-03-18T11:49:23.489Z,13.60
2023-03-18T11:52:01.845Z,12.60
2023-03-18T11:55:10.176Z,9.50
2023-03-18T11:57:50.591Z,10.80
2023-03-18T12:00:32.953Z,11.50
2023-03-18T12:03:38.432Z,11.90
2023-03-18T12:06:18.708Z,13.30
2023-03-18T12:09:01.024Z,12.00
2023-03-18T12:11:55.620Z,14.40
2023-03-18T12:14:34.647Z,12.40
2023-03-18T12:17:17.630Z,11.90
2023-03-18T12:20:06.674Z,13.50
2023-03-18T12:22:58.504Z,14.60
2023-03-18T12:25:50.422Z,11.60
2023-03-18T12:28:29.492Z,11.50
2023-03-18T12:31:24.275Z,13.20
2023-03-18T12:33:58.366Z,18.60
2023-03-18T12:36:43.882Z,11.40
2023-03-18T12:39:55.766Z,43.90
2023-03-18T12:42:37.451Z,26.90
2023-03-18T12:45:14.041Z,25.40
2023-03-18T12:47:48.367Z,12.90
2023-03-18T12:50:22.177Z,12.80
2023-03-18T12:52:57.213Z,11.90
2023-03-18T12:55:29.047Z,11.80
2023-03-18T12:58:02.973Z,11.60
2023-03-18T13:00:39.636Z,12.00
2023-03-18T13:03:28.155Z,11.40
2023-03-18T13:06:03.569Z,12.80
2023-03-18T13:08:53.506Z,12.80
2023-03-18T13:11:53.253Z,18.20
2023-03-18T13:14:29.975Z,14.00
2023-03-18T13:17:01.834Z,13.40
2023-03-18T13:19:34.380Z,17.70
2023-03-18T13:22:16.529Z,14.80
2023-03-18T13:25:05.567Z,15.90
2023-03-18T13:27:47.460Z,18.00
2023-03-18T13:30:29.297Z,14.40
2023-03-18T13:33:20.002Z,12.70
2023-03-18T13:36:17.173Z,22.40
2023-03-18T13:39:05.199Z,22.70
2023-03-18T13:41:49.635Z,14.40
2023-03-18T13:44:24.437Z,13.10
2023-03-18T13:47:03.035Z,12.70
2023-03-18T13:49:33.206Z,15.30
2023-03-18T13:52:03.890Z,12.70
2023-03-18T13:54:36.431Z,12.50
2023-03-18T13:57:32.732Z,13.30
2023-03-18T14:00:32.642Z,13.20
2023-03-18T14:03:21.228Z,12.60
2023-03-18T14:05:51.783Z,13.50
2023-03-18T14:08:46.589Z,13.10
2023-03-18T14:11:46.346Z,12.30
2023-03-18T14:14:54.355Z,13.40
2023-03-18T14:17:32.869Z,13.30
2023-03-18T14:20:20.773Z,13.40
2023-03-18T14:22:51.614Z,13.20
2023-03-18T14:25:34.614Z,13.30
2023-03-18T14:28:25.884Z,13.50
2023-03-18T14:31:13.281Z,15.30
2023-03-18T14:33:57.792Z,17.40
2023-03-18T14:36:45.308Z,21.70
2023-03-18T14:39:19.475Z,17.70
2023-03-18T14:41:53.319Z,13.60
2023-03-18T14:44:31.776Z,14.70
2023-03-18T14:47:07.156Z,19.20
2023-03-18T14:49:42.169Z,17.10
2023-03-18T14:52:25.306Z,25.00
2023-03-18T14:54:57.197Z,17.30
2023-03-18T14:57:26.561Z,14.10
2023-03-18T14:59:58.118Z,14.60
2023-03-18T15:02:30.710Z,13.80
2023-03-18T15:05:01.862Z,12.90
2023-03-18T15:07:35.193Z,12.60
2023-03-18T15:10:10.644Z,12.40
2023-03-18T15:12:40.205Z,12.30
2023-03-18T15:15:15.703Z,15.80
2023-03-18T15:17:48.969Z,14.90
2023-03-18T15:20:18.642Z,12.90
2023-03-18T15:22:48.525Z,12.80
2023-03-18T15:25:20.733Z,13.00
2023-03-18T15:27:54.391Z,16.30
2023-03-18T15:30:29.120Z,16.20
2023-03-18T15:33:04.887Z,16.50
2023-03-18T15:35:34.537Z,16.20
2023-03-18T15:38:13.381Z,25.90
2023-03-18T15:40:51.246Z,27.60
2023-03-18T15:43:29.738Z,24.70
2023-03-18T15:46:00.930Z,25.90
2023-03-18T15:48:35.533Z,25.30
2023-03-18T15:51:07.426Z,17.40
2023-03-18T15:53:44.068Z,15.30
2023-03-18T15:56:20.322Z,14.60
2023-03-18T15:58:58.588Z,14.10
2023-03-18T16:01:28.049Z,14.60
2023-03-18T16:03:57.526Z,17.40
2023-03-18T16:06:28.175Z,18.20
2023-03-18T16:08:57.327Z,14.50
2023-03-18T16:11:26.589Z,13.70
2023-03-18T16:13:56.031Z,12.50
2023-03-18T16:16:29.492Z,10.40
2023-03-18T16:18:59.314Z,9.80
2023-03-18T16:21:28.628Z,10.00
2023-03-18T16:23:57.801Z,9.80
2023-03-18T16:26:26.975Z,9.90
2023-03-18T16:28:56.360Z,10.50
2023-03-18T16:31:25.600Z,9.80
2023-03-18T16:33:55.672Z,10.30
2023-03-18T16:36:34.436Z,9.90
2023-03-18T16:39:16.456Z,10.50
2023-03-18T16:41:47.380Z,11.70
2023-03-18T16:44:18.844Z,11.10
2023-03-18T16:46:49.467Z,11.00
2023-03-18T16:49:22.605Z,11.00
2023-03-18T16:51:51.924Z,10.40
2023-03-18T16:54:23.364Z,10.40
2023-03-18T16:56:55.075Z,11.40
2023-03-18T16:59:29.019Z,10.00
2023-03-18T17:01:58.397Z,11.20
2023-03-18T17:04:29.445Z,12.50
2023-03-18T17:07:01.197Z,12.40
2023-03-18T17:09:31.306Z,11.80
2023-03-18T17:12:04.541Z,12.50
2023-03-18T17:14:39.184Z,14.90
2023-03-18T17:17:15.592Z,23.50
2023-03-18T17:19:45.620Z,16.90
2023-03-18T17:22:21.439Z,15.80
2023-03-18T17:24:51.392Z,15.20
2023-03-18T17:27:23.161Z,13.70
2023-03-18T17:29:53.136Z,45.40
2023-03-18T17:32:22.456Z,293.00
2023-03-18T17:34:53.195Z,210.60
2023-03-18T17:37:23.422Z,84.80
2023-03-18T17:39:52.839Z,37.00
2023-03-18T17:42:29.894Z,21.70
2023-03-18T17:45:05.596Z,19.60
2023-03-18T17:47:34.812Z,15.90
2023-03-18T17:50:04.957Z,15.50
2023-03-18T17:52:34.322Z,14.90
2023-03-18T17:55:09.479Z,13.60
2023-03-18T17:57:38.626Z,14.10
2023-03-18T18:00:20.839Z,12.80
2023-03-18T18:02:51.489Z,12.80
2023-03-18T18:05:22.605Z,13.60
2023-03-18T18:07:52.601Z,13.90
2023-03-18T18:10:21.737Z,16.20
2023-03-18T18:12:50.917Z,21.50
2023-03-18T18:15:24.926Z,28.00
2023-03-18T18:17:55.089Z,25.70
2023-03-18T18:20:24.290Z,21.30
2023-03-18T18:22:55.548Z,25.70
2023-03-18T18:25:29.140Z,24.50
2023-03-18T18:27:58.390Z,22.80
2023-03-18T18:30:28.076Z,20.50
2023-03-18T18:32:57.272Z,24.60
2023-03-18T18:35:26.428Z,18.40
2023-03-18T18:37:55.673Z,16.80
2023-03-18T18:40:24.877Z,16.40
2023-03-18T18:42:54.166Z,19.80
2023-03-18T18:45:23.580Z,20.60
2023-03-18T18:47:52.793Z,19.00
2023-03-18T18:50:26.519Z,18.20
2023-03-18T18:52:56.794Z,17.40
2023-03-18T18:55:26.640Z,16.80
2023-03-18T18:57:56.219Z,17.40
2023-03-18T19:00:25.747Z,17.10
2023-03-18T19:02:56.667Z,18.00
2023-03-18T19:05:26.018Z,17.90
2023-03-18T19:07:55.226Z,18.00
2023-03-18T19:10:24.806Z,17.10
2023-03-18T19:12:54.046Z,17.20
2023-03-18T19:15:23.473Z,16.60
2023-03-18T19:17:52.650Z,16.60
2023-03-18T19:20:30.230Z,16.50
2023-03-18T19:22:59.515Z,16.30
2023-03-18T19:25:29.145Z,16.00
2023-03-18T19:27:59.695Z,16.10
2023-03-18T19:30:28.965Z,16.20
2023-03-18T19:32:59.182Z,17.50
2023-03-18T19:35:28.665Z,17.60
2023-03-18T19:37:58.695Z,18.30
2023-03-18T19:40:31.300Z,18.10
2023-03-18T19:43:00.759Z,20.00
2023-03-18T19:45:30.279Z,21.30
2023-03-18T19:47:59.480Z,19.70
2023-03-18T19:50:28.807Z,19.60
2023-03-18T19:52:59.592Z,20.80
2023-03-18T19:55:29.075Z,20.40
2023-03-18T19:57:58.603Z,21.50
2023-03-18T20:00:28.658Z,22.90
2023-03-18T20:02:57.942Z,31.30
2023-03-18T20:05:27.418Z,43.90
2023-03-18T20:07:56.568Z,111.00
2023-03-18T20:10:25.795Z,166.20
2023-03-18T20:12:54.948Z,108.60
2023-03-18T20:15:26.555Z,56.60
2023-03-18T20:17:57.726Z,35.00
2023-03-18T20:20:29.728Z,28.70
2023-03-18T20:23:01.348Z,27.40
2023-03-18T20:25:35.892Z,25.90
2023-03-18T20:28:06.979Z,26.00
2023-03-18T20:30:38.576Z,28.30
2023-03-18T20:33:09.239Z,29.10
2023-03-18T20:35:41.041Z,28.00
2023-03-18T20:38:17.105Z,26.60
2023-03-18T20:40:47.765Z,27.60
2023-03-18T20:43:18.231Z,27.00
2023-03-18T20:45:48.086Z,26.30
2023-03-18T20:48:17.660Z,26.00
2023-03-18T20:50:47.037Z,25.90
2023-03-18T20:53:19.652Z,26.10
2023-03-18T20:55:49.534Z,25.80
2023-03-18T20:58:20.801Z,25.60
2023-03-18T21:00:51.749Z,26.70
2023-03-18T21:03:25.910Z,25.10
2023-03-18T21:05:56.774Z,25.70
2023-03-18T21:08:27.230Z,26.40
2023-03-18T21:11:01.376Z,26.00
2023-03-18T21:13:33.239Z,26.00
2023-03-18T21:16:03.752Z,26.20
2023-03-18T21:18:35.060Z,30.30
2023-03-18T21:21:04.463Z,65.00
2023-03-18T21:23:36.104Z,61.70
2023-03-18T21:26:05.712Z,39.70
2023-03-18T21:28:34.876Z,32.30
2023-03-18T21:31:04.876Z,29.90
2023-03-18T21:33:34.973Z,27.30
2023-03-18T21:36:05.959Z,28.80
2023-03-18T21:38:35.249Z,29.00
2023-03-18T21:41:11.476Z,28.70
2023-03-18T21:43:41.411Z,26.80
2023-03-18T21:46:14.435Z,27.80
2023-03-18T21:48:43.713Z,27.10
2023-03-18T21:51:37.525Z,28.00
2023-03-18T21:54:16.691Z,27.80
2023-03-18T21:56:46.000Z,27.20
2023-03-18T21:59:15.326Z,27.70
2023-03-18T22:01:44.616Z,27.70
2023-03-18T22:04:13.878Z,27.10
2023-03-18T22:06:43.090Z,26.70
2023-03-18T22:09:12.267Z,28.50
2023-03-18T22:11:41.426Z,27.80
2023-03-18T22:14:14.542Z,27.20
2023-03-18T22:16:43.708Z,27.70
2023-03-18T22:19:12.910Z,26.80
2023-03-18T22:21:42.105Z,29.00
2023-03-18T22:24:15.130Z,29.30
2023-03-18T22:26:44.338Z,29.20
2023-03-18T22:29:13.493Z,29.20
2023-03-18T22:31:42.823Z,27.70
2023-03-18T22:34:22.563Z,27.60
2023-03-18T22:36:52.082Z,26.10
2023-03-18T22:39:21.272Z,26.50
2023-03-18T22:41:50.383Z,26.50
2023-03-18T22:44:23.346Z,25.80
2023-03-18T22:46:52.586Z,25.70
2023-03-18T22:49:22.003Z,26.10
2023-03-18T22:51:51.129Z,25.30
2023-03-18T22:54:20.600Z,25.40
2023-03-18T22:56:49.932Z,27.70
2023-03-18T22:59:19.186Z,27.30
2023-03-18T23:01:48.509Z,26.90
2023-03-18T23:04:19.550Z,26.90
2023-03-18T23:06:48.911Z,27.50
2023-03-18T23:09:18.098Z,27.50
2023-03-18T23:11:47.223Z,27.20
2023-03-18T23:14:16.848Z,27.70
2023-03-18T23:16:46.013Z,27.20
2023-03-18T23:19:15.159Z,28.20
2023-03-18T23:21:44.336Z,29.20
2023-03-18T23:24:15.530Z,28.70
2023-03-18T23:26:44.866Z,29.40
2023-03-18T23:29:13.991Z,29.10
2023-03-18T23:31:44.397Z,29.00
2023-03-18T23:34:13.732Z,28.90
2023-03-18T23:36:43.503Z,28.80
2023-03-18T23:39:12.812Z,28.70
2023-03-18T23:41:41.996Z,28.30
2023-03-18T23:44:11.148Z,28.70
2023-03-18T23:46:41.660Z,29.20
2023-03-18T23:49:11.208Z,27.40
2023-03-18T23:51:40.351Z,28.00
2023-03-18T23:54:09.613Z,28.60
2023-03-18T23:56:38.795Z,28.50
2023-03-18T23:59:07.947Z,28.30
